Latest Weather Observations for Croker Island Airport

IDD60801

Issued at 10:51 pm CST Monday 6 February 2023 (issued every 10 minutes, with the page automatically refreshed every 10 minutes)

About weather observations | Map of weather stations | Latest weather observations for NT | Other Formats
Station Details ID: 014308 Name: CROKER ISLAND AIRPORT Lat: -11.16 Lon: 132.48 Height: 9.2 m
Data from the previous 72 hours. | See also: Recent months at Croker Island Airport
Date/Time
CST
Temp
°C
App
Temp
°C
Dew
Point
°C
Rel
Hum
%
Delta-T
°C
Wind Press
QNH
hPa
Press
MSL
hPa
Rain since
9am
mm
Dir  Spd
km/h
Gust
km/h
Spd
kts
Gust
kts
06/10:30pm 28.8 - - - - WNW 15 22 8 12 1007.3 1007.2 0.2
06/10:00pm 28.8 - - - - WNW 13 20 7 11 1007.2 1007.1 0.2
06/09:30pm 28.7 - - - - WNW 13 20 7 11 1006.8 1006.7 0.2
06/09:00pm 28.6 - - - - WNW 13 19 7 10 1006.8 1006.7 0.2
06/08:30pm 28.6 - - - - WNW 11 17 6 9 1006.8 1006.7 0.2
06/08:00pm 28.7 - - - - WNW 9 15 5 8 1006.6 1006.5 0.2
06/07:30pm 28.7 - - - - W 13 17 7 9 1006.3 1006.2 0.2
06/07:00pm 28.8 - - - - WNW 9 13 5 7 1005.9 1005.8 0.2
06/06:30pm 29.4 - - - - W 9 17 5 9 1005.5 1005.4 0.2
06/06:00pm 30.0 - - - - WNW 7 11 4 6 1005.5 1005.4 0.2
06/05:30pm 30.4 - - - - WNW 7 9 4 5 1005.3 1005.2 0.2
06/05:00pm 29.6 - - - - WNW 9 13 5 7 1005.0 1004.9 0.2
06/04:30pm 28.9 - - - - W 11 17 6 9 1004.9 1004.8 0.2
06/04:00pm 29.9 - - - - WNW 13 19 7 10 1005.1 1005.0 0.2
06/03:30pm 30.1 - - - - WNW 9 13 5 7 1005.4 1005.3 0.2
06/03:00pm 31.1 - - - - W 7 11 4 6 1005.3 1005.2 0.2
06/02:30pm 28.9 - - - - WSW 6 7 3 4 1005.6 1005.5 0.2
06/02:00pm 29.3 - - - - WSW 6 11 3 6 1006.0 1005.9 0.2
06/01:30pm 27.8 - - - - WSW 6 9 3 5 1006.5 1006.4 0.0
06/01:00pm 29.2 - - - - SSW 9 22 5 12 1006.9 1006.8 0.0
06/12:30pm 29.8 - - - - SSW 6 9 3 5 1007.1 1007.0 0.0
06/12:00pm 30.3 - - - - SSW 4 7 2 4 1007.4 1007.3 0.0
06/11:30am 30.6 - - - - SSW 4 6 2 3 1007.8 1007.7 0.0
06/11:00am 29.9 - - - - SSW 4 4 2 2 1008.2 1008.1 0.0
06/10:30am 29.9 - - - - SSW 4 6 2 3 1008.4 1008.3 0.0
06/10:00am 29.6 - - - - SSW 4 6 2 3 1008.5 1008.4 0.0
06/09:30am 29.0 - - - - SSW 4 6 2 3 1008.3 1008.2 0.0
06/09:00am 28.7 - - - - SSW 4 9 2 5 1008.3 1008.2 0.2
06/08:30am 28.4 - - - - SSW 4 7 2 4 1008.1 1008.0 0.2
06/08:00am 27.8 - - - - SSW 6 9 3 5 1007.7 1007.6 0.2
06/07:30am 27.6 - - - - SSW 4 7 2 4 1007.2 1007.1 0.2
06/07:00am 27.3 - - - - SSW 7 13 4 7 1006.8 1006.7 0.2
06/06:30am 27.3 - - - - SSW 7 11 4 6 1006.4 1006.3 0.2
06/06:00am 27.1 - - - - SSW 7 9 4 5 1006.0 1005.9 0.2
06/05:30am 27.1 - - - - SSW 7 13 4 7 1005.8 1005.7 0.2
06/05:00am 27.1 - - - - SSW 6 11 3 6 1005.8 1005.7 0.2
06/04:30am 27.1 - - - - SW 6 9 3 5 1005.6 1005.5 0.2
06/04:00am 27.3 - - - - WSW 7 11 4 6 1005.7 1005.6 0.2
06/03:30am 27.2 - - - - SW 4 9 2 5 1005.6 1005.5 0.2
06/03:00am 27.1 - - - - SW 6 11 3 6 1005.5 1005.4 0.2
06/02:30am 27.5 - - - - SSW 11 19 6 10 1005.7 1005.6 0.2
06/02:00am 27.1 - - - - SSW 7 15 4 8 1006.1 1006.0 0.2
06/01:30am 27.2 - - - - SSW 11 13 6 7 1006.3 1006.2 0.2
06/01:00am 27.2 - - - - W 2 7 1 4 1006.3 1006.2 0.2
06/12:30am 27.4 - - - - CALM 0 0 0 0 1006.5 1006.4 0.2
06/12:00am 27.5 - - - - W 4 7 2 4 1006.7 1006.6 0.2
 
Date/Time
CST
Temp
°C
App
Temp
°C
Dew
Point
°C
Rel
Hum
%
Delta-T
°C
Wind Press
QNH
hPa
Press
MSL
hPa
Rain since
9am
mm
Dir  Spd
km/h
Gust
km/h
Spd
kts
Gust
kts
05/11:30pm 27.3 - - - - W 7 11 4 6 1006.7 1006.6 0.2
05/11:00pm 27.4 - - - - W 9 13 5 7 1006.9 1006.8 0.2
05/10:30pm 27.6 - - - - W 7 13 4 7 1006.9 1006.8 0.2
05/10:00pm 27.4 - - - - W 7 11 4 6 1006.9 1006.8 0.2
05/09:30pm 26.6 - - - - CALM 0 0 0 0 1006.7 1006.6 0.2
05/09:00pm 26.7 - - - - CALM 0 0 0 0 1006.4 1006.3 0.2
05/08:30pm 26.9 - - - - CALM 0 0 0 0 1006.3 1006.2 0.2
05/08:00pm 27.1 - - - - CALM 0 0 0 0 1006.0 1005.9 0.2
05/07:30pm 27.4 - - - - E 2 4 1 2 1005.8 1005.7 0.2
05/07:00pm 27.6 - - - - E 4 6 2 3 1005.6 1005.5 0.2
05/06:30pm 28.0 - - - - E 4 6 2 3 1005.2 1005.1 0.2
05/06:00pm 28.3 - - - - E 6 9 3 5 1004.9 1004.8 0.2
05/05:30pm 28.4 - - - - E 9 15 5 8 1004.5 1004.4 0.2
05/05:00pm 29.5 - - - - E 11 15 6 8 1004.3 1004.2 0.2
05/04:30pm 29.0 - - - - ENE 9 17 5 9 1004.0 1003.9 0.2
05/04:00pm 28.7 - - - - ENE 13 20 7 11 1004.1 1004.0 0.2
05/03:30pm 28.9 - - - - ENE 13 20 7 11 1004.3 1004.2 0.2
05/03:00pm 30.0 - - - - E 13 19 7 10 1004.4 1004.3 0.2
05/02:30pm 29.6 - - - - ENE 11 19 6 10 1004.6 1004.5 0.2
05/02:00pm 29.7 - - - - ENE 13 19 7 10 1004.8 1004.7 0.2
05/01:30pm 29.4 - - - - E 11 17 6 9 1005.0 1004.9 0.2
05/01:00pm 29.5 - - - - ENE 7 9 4 5 1005.1 1005.0 0.2
05/12:30pm 29.8 - - - - E 9 15 5 8 1005.6 1005.5 0.2
05/12:00pm 29.6 - - - - E 13 22 7 12 1005.7 1005.6 0.2
05/11:30am 29.4 - - - - E 11 19 6 10 1005.7 1005.6 0.2
05/11:00am 29.0 - - - - E 13 20 7 11 1006.2 1006.1 0.0
05/10:30am 27.7 - - - - E 11 17 6 9 1006.6 1006.5 0.0
05/10:00am 27.9 - - - - E 11 17 6 9 1006.6 1006.5 0.0
05/09:30am 26.9 - - - - E 11 17 6 9 1006.5 1006.4 0.0
05/09:00am 25.9 - - - - E 9 13 5 7 1006.4 1006.3 19.2
05/08:30am 25.3 - - - - E 7 13 4 7 1006.4 1006.3 19.2
05/08:00am 25.2 - - - - ESE 7 13 4 7 1006.0 1005.9 19.2
05/07:30am 24.8 - - - - E 4 7 2 4 1005.7 1005.6 19.2
05/07:00am 24.4 - - - - E 7 11 4 6 1005.5 1005.4 19.2
05/06:30am 24.5 - - - - ENE 6 7 3 4 1005.2 1005.1 19.0
05/06:00am 24.4 - - - - ENE 7 9 4 5 1005.0 1004.9 18.6
05/05:30am 24.2 - - - - ENE 7 13 4 7 1004.8 1004.7 18.2
05/05:00am 24.1 - - - - E 9 15 5 8 1004.6 1004.5 17.0
05/04:30am 24.3 - - - - ENE 9 17 5 9 1004.6 1004.5 16.2
05/04:00am 25.1 - - - - E 7 13 4 7 1004.6 1004.5 16.0
05/03:30am 25.2 - - - - E 4 6 2 3 1004.6 1004.5 14.8
05/03:00am 25.2 - - - - E 6 7 3 4 1004.5 1004.4 14.2
05/02:30am 25.3 - - - - CALM 0 2 0 1 1004.8 1004.7 12.4
05/02:00am 25.2 - - - - E 4 4 2 2 1005.1 1005.0 11.6
05/01:30am 25.3 - - - - E 6 9 3 5 1005.5 1005.4 11.4
05/01:00am 25.2 - - - - E 9 13 5 7 1005.8 1005.7 11.4
05/12:30am 25.3 - - - - ESE 6 9 3 5 1006.3 1006.2 11.4
05/12:00am 25.4 - - - - SE 7 15 4 8 1006.4 1006.3 11.4
 
Date/Time
CST
Temp
°C
App
Temp
°C
Dew
Point
°C
Rel
Hum
%
Delta-T
°C
Wind Press
QNH
hPa
Press
MSL
hPa
Rain since
9am
mm
Dir  Spd
km/h
Gust
km/h
Spd
kts
Gust
kts
04/11:30pm 25.2 - - - - ESE 7 11 4 6 1006.7 1006.6 11.4
04/11:00pm 25.2 - - - - ESE 6 7 3 4 1006.7 1006.6 11.4
04/10:30pm 25.2 - - - - ESE 7 9 4 5 1006.9 1006.8 11.4
04/10:00pm 25.0 - - - - ESE 7 11 4 6 1007.0 1006.9 11.4
04/09:30pm 25.2 - - - - SE 6 9 3 5 1007.1 1007.0 11.2
04/09:00pm 25.4 - - - - ESE 6 7 3 4 1006.7 1006.6 10.4
04/08:30pm 25.2 - - - - SE 7 11 4 6 1006.5 1006.4 7.2
04/08:00pm 25.3 - - - - SE 6 9 3 5 1006.3 1006.2 6.0
04/07:30pm 25.7 - - - - S 9 17 5 9 1005.9 1005.8 5.8
04/07:00pm 28.7 - - - - WNW 15 22 8 12 1005.2 1005.1 0.0
04/06:30pm 28.7 - - - - WNW 15 22 8 12 1004.6 1004.5 0.0
04/06:00pm 28.9 - - - - WNW 15 24 8 13 1004.3 1004.2 0.0
04/05:30pm 29.6 - - - - NW 15 24 8 13 1003.8 1003.7 0.0
04/05:00pm 29.7 - - - - NW 15 22 8 12 1003.4 1003.3 0.0
04/04:30pm 30.4 - - - - NW 13 20 7 11 1003.3 1003.2 0.0
04/04:00pm 30.4 - - - - NW 13 24 7 13 1003.4 1003.3 0.0
04/03:30pm 29.8 - - - - NW 17 28 9 15 1003.4 1003.3 0.0
04/03:00pm 30.1 - - - - NW 15 24 8 13 1003.6 1003.5 0.0
04/02:30pm 30.6 - - - - WNW 15 24 8 13 1004.0 1003.9 0.0
04/02:00pm 30.1 - - - - WNW 13 22 7 12 1004.6 1004.5 0.0
04/01:30pm 30.2 - - - - WNW 9 17 5 9 1004.9 1004.8 0.0
04/01:00pm 30.0 - - - - WNW 11 15 6 8 1005.2 1005.1 0.0
04/12:30pm 29.9 - - - - WNW 11 19 6 10 1005.7 1005.6 0.0
04/12:00pm 29.8 - - - - WNW 7 11 4 6 1006.2 1006.1 0.0
04/11:30am 29.1 - - - - W 4 6 2 3 1006.5 1006.4 0.0
04/11:00am 29.2 - - - - W 4 6 2 3 1006.7 1006.6 0.0
04/10:30am 28.8 - - - - W 2 4 1 2 1006.8 1006.7 0.0
04/10:00am 28.6 - - - - W 2 6 1 3 1006.9 1006.8 0.0
04/09:30am 28.8 - - - - W 6 9 3 5 1006.9 1006.8 0.0
04/09:00am 28.5 - - - - W 7 13 4 7 1006.7 1006.6 21.6
04/08:30am 27.6 - - - - WSW 9 13 5 7 1006.4 1006.3 21.6
04/08:00am 27.2 - - - - W 9 13 5 7 1006.0 1005.9 21.6
04/07:30am 27.1 - - - - WSW 13 19 7 10 1005.7 1005.6 21.6
04/07:00am 27.1 - - - - W 13 20 7 11 1005.2 1005.1 21.6
04/06:30am 27.1 - - - - W 17 30 9 16 1005.2 1005.1 21.6
04/06:00am 27.5 - - - - WNW 22 32 12 17 1005.1 1005.0 21.6
04/05:30am 27.1 - - - - WNW 19 28 10 15 1004.9 1004.8 21.6
04/05:00am 26.8 - - - - W 19 28 10 15 1005.0 1004.9 21.6
04/04:30am 26.4 - - - - WNW 20 30 11 16 1004.7 1004.6 21.6
04/04:00am 26.8 - - - - W 26 37 14 20 1004.6 1004.5 21.6
04/03:30am 26.7 - - - - W 22 37 12 20 1004.5 1004.4 21.6
04/03:00am 26.4 - - - - WNW 19 30 10 16 1004.4 1004.3 20.2
04/02:30am 26.3 - - - - W 17 28 9 15 1004.5 1004.4 20.2
04/02:00am 25.1 - - - - WNW 32 44 17 24 1005.0 1004.9 15.6
04/01:30am 27.3 - - - - WNW 20 35 11 19 1004.9 1004.8 1.4
04/01:00am 28.6 - - - - WNW 22 30 12 16 1005.4 1005.3 1.4
04/12:30am 28.8 - - - - WNW 24 33 13 18 1005.9 1005.8 1.4
04/12:00am 28.6 - - - - W 17 24 9 13 1006.2 1006.1 1.4
 
Date/Time
CST
Temp
°C
App
Temp
°C
Dew
Point
°C
Rel
Hum
%
Delta-T
°C
Wind Press
QNH
hPa
Press
MSL
hPa
Rain since
9am
mm
Dir  Spd
km/h
Gust
km/h
Spd
kts
Gust
kts
03/11:30pm 28.6 - - - - W 19 26 10 14 1006.4 1006.3 1.4
03/11:00pm 28.6 - - - - W 19 26 10 14 1006.2 1006.1 1.4

Other formats

Comma delimited format used in spreadsheet applications
http://www.bom.gov.au/fwo/IDD60801/IDD60801.94108.axf

JavaScript Object Notation format (JSON) in row-major order
http://www.bom.gov.au/fwo/IDD60801/IDD60801.94108.json

Data quality

Most of these data are generated automatically and are frequently updated. Quality checks on data are not normally performed. It is possible for incorrect values to appear. Refer to information at About Latest Weather Observations and please check the disclaimer before using these data.